createdAt,value
2018-09-29T00:00:28.947Z,-10.4002
2018-09-29T00:01:34.111Z,-10.1518
2018-09-29T00:02:39.565Z,-10.1518
2018-09-29T00:03:44.928Z,-11.1506
2018-09-29T00:04:50.417Z,-11.399
2018-09-29T00:05:55.344Z,-11.399
2018-09-29T00:07:01.260Z,-11.6473
2018-09-29T00:08:06.439Z,-11.1506
2018-09-29T00:09:11.026Z,-11.399
2018-09-29T00:10:16.104Z,-11.6473
2018-09-29T00:11:20.897Z,-10.6485
2018-09-29T00:12:40.808Z,-10.9022
2018-09-29T00:13:45.960Z,-11.6473
2018-09-29T00:14:51.103Z,-12.1494
2018-09-29T00:15:55.933Z,-11.1506
2018-09-29T00:17:01.122Z,-11.6473
2018-09-29T00:18:05.714Z,-11.1506
2018-09-29T00:19:11.289Z,-11.6473
2018-09-29T00:20:16.693Z,-11.901
2018-09-29T00:21:21.845Z,-11.1506
2018-09-29T00:22:27.096Z,-11.1506
2018-09-29T00:23:32.567Z,-11.399
2018-09-29T00:24:38.007Z,-11.6473
2018-09-29T00:25:43.277Z,-11.6473
2018-09-29T00:26:48.493Z,-11.6473
2018-09-29T00:27:54.035Z,-12.3978
2018-09-29T00:28:59.526Z,-11.6473
2018-09-29T00:30:04.133Z,-11.6473
2018-09-29T00:31:09.312Z,-11.399
2018-09-29T00:32:14.772Z,-11.6473
2018-09-29T00:33:20.345Z,-12.3978
2018-09-29T00:34:25.191Z,-11.6473
2018-09-29T00:35:30.690Z,-10.9022
2018-09-29T00:36:36.337Z,-11.399
2018-09-29T00:37:41.295Z,-12.1494
2018-09-29T00:38:46.630Z,-11.901
2018-09-29T00:39:52.073Z,-11.6473
2018-09-29T00:40:57.227Z,-11.6473
2018-09-29T00:42:02.448Z,-12.1494
2018-09-29T00:43:07.796Z,-11.1506
2018-09-29T00:44:13.276Z,-11.901
2018-09-29T00:45:18.512Z,-11.6473
2018-09-29T00:46:24.321Z,-12.5616
2018-09-29T00:47:29.751Z,-11.6473
2018-09-29T00:48:34.949Z,-11.6473
2018-09-29T00:49:40.425Z,-12.1494
2018-09-29T00:50:45.312Z,-11.901
2018-09-29T00:51:51.331Z,-12.1494
2018-09-29T00:52:56.827Z,-12.3978
2018-09-29T00:54:01.719Z,-11.6473
2018-09-29T00:55:06.882Z,-12.1494
2018-09-29T00:56:12.067Z,-11.901
2018-09-29T00:57:17.219Z,-12.5616
2018-09-29T00:58:23.105Z,-12.1494
2018-09-29T00:59:28.590Z,-12.5616
2018-09-29T01:00:34.000Z,-11.901
2018-09-29T01:01:39.161Z,-11.6473
2018-09-29T01:02:44.304Z,-11.399
2018-09-29T01:03:49.983Z,-11.901
2018-09-29T01:04:55.456Z,-11.399
2018-09-29T01:06:00.449Z,-12.1494
2018-09-29T01:07:05.844Z,-11.1506
2018-09-29T01:08:10.789Z,-11.6473
2018-09-29T01:09:15.938Z,-13.312
2018-09-29T01:10:21.429Z,-12.1494
2018-09-29T01:11:26.597Z,-12.3978
2018-09-29T01:12:32.486Z,-12.5616
2018-09-29T01:13:37.649Z,-12.5616
2018-09-29T01:14:43.254Z,-12.1494
2018-09-29T01:15:49.083Z,-12.3978
2018-09-29T01:16:54.233Z,-12.3978
2018-09-29T01:17:59.414Z,-11.6473
2018-09-29T01:19:05.317Z,-11.901
2018-09-29T01:20:10.195Z,-12.1494
2018-09-29T01:21:14.848Z,-12.3978
2018-09-29T01:22:20.736Z,-11.901
2018-09-29T01:23:26.162Z,-11.901
2018-09-29T01:24:31.622Z,-11.901
2018-09-29T01:25:37.092Z,-11.399
2018-09-29T01:26:42.634Z,-11.399
2018-09-29T01:27:48.163Z,-11.901
2018-09-29T01:28:53.696Z,-10.6485
2018-09-29T01:29:59.164Z,-11.1506
2018-09-29T01:31:04.162Z,-11.1506
2018-09-29T01:32:09.716Z,-10.9022
2018-09-29T01:33:14.993Z,-10.9022
2018-09-29T01:34:20.805Z,-10.9022
2018-09-29T01:35:25.946Z,-11.1506
2018-09-29T01:36:31.646Z,-11.399
2018-09-29T01:37:36.798Z,-10.4002
2018-09-29T01:38:42.232Z,-10.4002
2018-09-29T01:39:47.517Z,-10.9022
2018-09-29T01:40:53.137Z,-10.9022
2018-09-29T01:41:58.276Z,-10.6485
2018-09-29T01:43:04.339Z,-10.1518
2018-09-29T01:44:10.005Z,-10.1518
2018-09-29T01:45:15.463Z,-10.1518
2018-09-29T01:46:21.194Z,-10.4002
2018-09-29T01:47:26.696Z,-10.1518
2018-09-29T01:48:32.019Z,-10.4002
2018-09-29T01:49:37.521Z,-10.6485
2018-09-29T01:50:42.697Z,-11.1506
2018-09-29T01:51:48.629Z,-10.9022
2018-09-29T01:52:52.933Z,-10.9022
2018-09-29T01:53:58.141Z,-10.9022
2018-09-29T01:55:03.257Z,-10.6485
2018-09-29T01:56:08.781Z,-10.4002
2018-09-29T01:57:14.232Z,-10.4002
2018-09-29T01:58:20.021Z,-9.7343
2018-09-29T01:59:24.905Z,-10.1518
2018-09-29T02:00:30.566Z,-10.4002
2018-09-29T02:01:34.869Z,-10.1518
2018-09-29T02:02:40.035Z,-10.1518
2018-09-29T02:03:45.879Z,-10.6485
2018-09-29T02:04:51.313Z,-11.399
2018-09-29T02:05:56.547Z,-9.9034
2018-09-29T02:07:02.503Z,-11.399
2018-09-29T02:08:08.084Z,-11.1506
2018-09-29T02:09:13.784Z,-11.6473
2018-09-29T02:10:19.540Z,-11.399
2018-09-29T02:11:24.681Z,-11.399
2018-09-29T02:12:29.835Z,-11.399
2018-09-29T02:13:35.054Z,-11.6473
2018-09-29T02:14:40.478Z,-12.3132
2018-09-29T02:15:45.903Z,-11.901
2018-09-29T02:16:51.330Z,-12.8152
2018-09-29T02:17:56.505Z,-12.8152
2018-09-29T02:19:01.710Z,-13.312
2018-09-29T02:20:06.592Z,-12.3978
2018-09-29T02:21:11.737Z,-12.8152
2018-09-29T02:22:17.129Z,-13.0636
2018-09-29T02:23:22.043Z,-12.5616
2018-09-29T02:24:27.874Z,-13.5604
2018-09-29T02:25:33.298Z,-12.8152
2018-09-29T02:26:38.467Z,-12.5616
2018-09-29T02:27:43.855Z,-12.3132
2018-09-29T02:28:48.533Z,-12.5616
2018-09-29T02:29:54.184Z,-13.0636
2018-09-29T02:30:59.585Z,-11.901
2018-09-29T02:32:04.742Z,-12.1494
2018-09-29T02:33:09.829Z,-11.901
2018-09-29T02:34:14.949Z,-12.3132
2018-09-29T02:35:19.816Z,-12.1494
2018-09-29T02:36:24.982Z,-11.901
2018-09-29T02:37:45.535Z,-11.6473
2018-09-29T02:38:50.975Z,-11.6473
2018-09-29T02:39:56.389Z,-11.901
2018-09-29T02:41:01.576Z,-12.1494
2018-09-29T02:42:06.539Z,-11.901
2018-09-29T02:43:12.225Z,-11.901
2018-09-29T02:44:17.163Z,-12.1494
2018-09-29T02:45:22.647Z,-11.6473
2018-09-29T02:46:28.359Z,-11.399
2018-09-29T02:47:33.589Z,-11.399
2018-09-29T02:48:39.367Z,-11.399
2018-09-29T02:49:44.794Z,-11.1506
2018-09-29T02:50:49.975Z,-11.1506
2018-09-29T02:51:55.237Z,-10.6485
2018-09-29T02:53:00.665Z,-10.9022
2018-09-29T02:54:05.892Z,-11.901
2018-09-29T02:55:11.781Z,-11.901
2018-09-29T02:56:17.202Z,-11.6473
2018-09-29T02:57:22.762Z,-11.399
2018-09-29T02:58:28.019Z,-11.1506
2018-09-29T02:59:33.503Z,-10.9022
2018-09-29T03:00:38.807Z,-11.1506
2018-09-29T03:01:44.253Z,-10.6485
2018-09-29T03:02:49.396Z,-11.6473
2018-09-29T03:03:55.089Z,-11.1506
2018-09-29T03:05:00.514Z,-11.399
2018-09-29T03:06:05.463Z,-11.399
2018-09-29T03:07:11.851Z,-12.3132
2018-09-29T03:08:17.462Z,-10.9022
2018-09-29T03:09:22.704Z,-11.901
2018-09-29T03:10:27.901Z,-11.901
2018-09-29T03:11:33.041Z,-11.6473
2018-09-29T03:12:38.461Z,-11.6473
2018-09-29T03:13:43.981Z,-12.3132
2018-09-29T03:14:49.410Z,-11.399
2018-09-29T03:15:55.090Z,-11.399
2018-09-29T03:16:59.962Z,-11.6473
2018-09-29T03:18:05.405Z,-10.9022
2018-09-29T03:19:10.608Z,-11.901
2018-09-29T03:20:16.213Z,-11.6473
2018-09-29T03:21:20.798Z,-11.1506
2018-09-29T03:22:26.594Z,-11.901
2018-09-29T03:23:32.074Z,-11.1506
2018-09-29T03:24:36.909Z,-11.901
2018-09-29T03:25:42.451Z,-11.6473
2018-09-29T03:26:47.938Z,-11.399
2018-09-29T03:27:53.058Z,-11.399
2018-09-29T03:28:57.651Z,-11.399
2018-09-29T03:30:02.605Z,-11.1506
2018-09-29T03:31:08.105Z,-11.8165
2018-09-29T03:32:13.569Z,-11.8165
2018-09-29T03:33:18.152Z,-11.399
2018-09-29T03:34:23.448Z,-10.9022
2018-09-29T03:35:28.871Z,-12.0648
2018-09-29T03:36:35.019Z,-11.8165
2018-09-29T03:37:39.876Z,-11.8165
2018-09-29T03:38:45.324Z,-12.3132
2018-09-29T03:39:51.008Z,-11.8165
2018-09-29T03:40:56.155Z,-11.6473
2018-09-29T03:42:01.443Z,-12.0648
2018-09-29T03:43:07.083Z,-11.8165
2018-09-29T03:44:12.249Z,-11.1506
2018-09-29T03:45:17.588Z,-11.5681
2018-09-29T03:46:23.310Z,-11.1506
2018-09-29T03:47:28.183Z,-12.0648
2018-09-29T03:48:33.385Z,-11.1506
2018-09-29T03:49:37.965Z,-10.9022
2018-09-29T03:50:43.434Z,-11.399
2018-09-29T03:51:49.188Z,-11.1506
2018-09-29T03:52:54.083Z,-11.1506
2018-09-29T03:53:59.514Z,-11.8165
2018-09-29T03:55:04.065Z,-11.399
2018-09-29T03:56:08.954Z,-11.1506
2018-09-29T03:57:14.102Z,-10.9022
2018-09-29T03:58:19.990Z,-10.1518
2018-09-29T03:59:24.974Z,-10.4002
2018-09-29T04:00:30.506Z,-9.9034
2018-09-29T04:01:35.961Z,-10.1518
2018-09-29T04:02:40.948Z,-10.4002
2018-09-29T04:03:46.638Z,-10.4002
2018-09-29T04:04:51.834Z,-10.1518
2018-09-29T04:05:57.294Z,-9.9034
2018-09-29T04:07:02.569Z,-10.4002
2018-09-29T04:08:08.002Z,-9.655
2018-09-29T04:09:13.484Z,-9.9034
2018-09-29T04:10:18.873Z,-9.655
2018-09-29T04:11:23.748Z,-10.4002
2018-09-29T04:12:29.554Z,-10.1518
2018-09-29T04:13:34.154Z,-9.9034
2018-09-29T04:14:39.665Z,-10.4002
2018-09-29T04:15:45.216Z,-10.1518
2018-09-29T04:16:50.091Z,-10.4002
2018-09-29T04:17:54.445Z,-10.1518
2018-09-29T04:19:00.294Z,-9.9034
2018-09-29T04:20:05.526Z,-10.8177
2018-09-29T04:21:10.692Z,-10.1518
2018-09-29T04:22:16.371Z,-10.8177
2018-09-29T04:23:21.826Z,-10.8177
2018-09-29T04:24:27.757Z,-11.3144
2018-09-29T04:25:33.226Z,-10.1518
2018-09-29T04:26:37.806Z,-10.6485
2018-09-29T04:27:43.344Z,-10.8177
2018-09-29T04:28:48.789Z,-10.4002
2018-09-29T04:29:53.652Z,-11.066
2018-09-29T04:30:59.222Z,-11.8165
2018-09-29T04:32:03.227Z,-11.5681
2018-09-29T04:33:08.696Z,-11.3144
2018-09-29T04:34:14.474Z,-11.5681
2018-09-29T04:35:19.357Z,-11.8165
2018-09-29T04:36:24.533Z,-12.3132
2018-09-29T04:37:44.308Z,-11.3144
2018-09-29T04:38:49.809Z,-11.3144
2018-09-29T04:39:55.592Z,-12.0648
2018-09-29T04:41:01.198Z,-11.8165
2018-09-29T04:42:06.495Z,-11.3144
2018-09-29T04:43:12.296Z,-11.3144
2018-09-29T04:44:17.953Z,-11.8165
2018-09-29T04:45:23.449Z,-11.5681
2018-09-29T04:46:29.334Z,-11.3144
2018-09-29T04:47:34.491Z,-11.5681
2018-09-29T04:48:40.111Z,-12.3132
2018-09-29T04:49:44.978Z,-12.0648
2018-09-29T04:50:50.514Z,-12.0648
2018-09-29T04:51:55.789Z,-11.5681
2018-09-29T04:53:01.241Z,-12.7307
2018-09-29T04:54:05.867Z,-12.5616
2018-09-29T04:55:11.333Z,-12.5616
2018-09-29T04:56:16.477Z,-12.9791
2018-09-29T04:57:21.405Z,-12.5616
2018-09-29T04:58:26.660Z,-12.7307
2018-09-29T04:59:31.878Z,-12.9791
2018-09-29T05:00:37.280Z,-13.2274
2018-09-29T05:01:42.146Z,-12.9791
2018-09-29T05:02:47.576Z,-13.4758
2018-09-29T05:03:53.370Z,-13.9779
2018-09-29T05:04:58.266Z,-13.4758
2018-09-29T05:06:03.416Z,-13.2274
2018-09-29T05:07:08.773Z,-13.7242
2018-09-29T05:08:13.921Z,-13.4758
2018-09-29T05:09:18.532Z,-13.9779
2018-09-29T05:10:24.372Z,-12.9791
2018-09-29T05:11:29.817Z,-13.4758
2018-09-29T05:12:35.462Z,-13.4758
2018-09-29T05:13:40.946Z,-13.4758
2018-09-29T05:14:45.846Z,-12.7307
2018-09-29T05:15:51.282Z,-12.4823
2018-09-29T05:16:56.780Z,-12.7307
2018-09-29T05:18:01.655Z,-12.0648
2018-09-29T05:19:07.318Z,-12.4823
2018-09-29T05:20:12.875Z,-12.7307
2018-09-29T05:21:18.312Z,-12.3132
2018-09-29T05:22:23.608Z,-12.4823
2018-09-29T05:23:28.839Z,-12.0648
2018-09-29T05:24:34.238Z,-11.8165
2018-09-29T05:25:39.738Z,-12.3132
2018-09-29T05:26:45.225Z,-12.3132
2018-09-29T05:27:50.778Z,-13.2274
2018-09-29T05:28:55.375Z,-13.4758
2018-09-29T05:30:00.824Z,-12.9791
2018-09-29T05:31:05.666Z,-13.7242
2018-09-29T05:32:11.142Z,-12.9791
2018-09-29T05:33:16.396Z,-13.4758
2018-09-29T05:34:21.797Z,-13.2274
2018-09-29T05:35:26.436Z,-12.9791
2018-09-29T05:36:32.489Z,-12.9791
2018-09-29T05:37:37.638Z,-13.7242
2018-09-29T05:38:43.112Z,-14.1417
2018-09-29T05:39:48.751Z,-13.9779
2018-09-29T05:40:53.906Z,-14.1417
2018-09-29T05:41:59.055Z,-13.7242
2018-09-29T05:43:03.158Z,-14.3901
2018-09-29T05:44:08.022Z,-13.7242
2018-09-29T05:45:13.447Z,-13.7242
2018-09-29T05:46:18.825Z,-13.2274
2018-09-29T05:47:24.337Z,-14.1417
2018-09-29T05:48:30.218Z,-14.1417
2018-09-29T05:49:35.462Z,-14.1417
2018-09-29T05:50:40.727Z,-13.8088
2018-09-29T05:51:46.449Z,-13.8088
2018-09-29T05:52:51.299Z,-12.8152
2018-09-29T05:53:56.757Z,-13.312
2018-09-29T05:55:02.756Z,-14.0571
2018-09-29T05:56:08.286Z,-14.0571
2018-09-29T05:57:13.433Z,-14.0571
2018-09-29T05:58:18.988Z,-14.723
2018-09-29T05:59:23.890Z,-14.4746
2018-09-29T06:00:29.951Z,-14.4746
2018-09-29T06:01:34.859Z,-14.4746
2018-09-29T06:02:40.347Z,-14.723
2018-09-29T06:03:46.203Z,-14.9714
2018-09-29T06:04:51.613Z,-16.2238
2018-09-29T06:05:57.542Z,-14.9714
2018-09-29T06:07:02.737Z,-14.723
2018-09-29T06:08:08.363Z,-14.9714
2018-09-29T06:09:13.515Z,-14.9714
2018-09-29T06:10:19.485Z,-15.0559
2018-09-29T06:11:24.076Z,-15.0559
2018-09-29T06:12:29.386Z,-14.5592
2018-09-29T06:13:34.854Z,-14.8076
2018-09-29T06:14:40.016Z,-15.0559
2018-09-29T06:15:45.531Z,-15.9755
2018-09-29T06:16:50.495Z,-15.3043
2018-09-29T06:17:55.366Z,-15.3043
2018-09-29T06:19:01.073Z,-14.8076
2018-09-29T06:20:05.946Z,-15.3043
2018-09-29T06:21:10.883Z,-14.5592
2018-09-29T06:22:16.767Z,-15.558
2018-09-29T06:23:22.236Z,-15.0559
2018-09-29T06:24:27.499Z,-14.5592
2018-09-29T06:25:32.404Z,-14.5592
2018-09-29T06:26:37.009Z,-15.0559
2018-09-29T06:27:42.397Z,-14.1417
2018-09-29T06:28:47.874Z,-14.1417
2018-09-29T06:29:53.022Z,-14.5592
2018-09-29T06:30:58.413Z,-14.5592
2018-09-29T06:32:03.690Z,-14.5592
2018-09-29T06:33:09.180Z,-14.5592
2018-09-29T06:34:14.804Z,-14.8076
2018-09-29T06:35:20.357Z,-14.8076
2018-09-29T06:36:40.593Z,-15.0559
2018-09-29T06:37:45.728Z,-14.1417
2018-09-29T06:38:51.154Z,-14.6384
2018-09-29T06:39:56.660Z,-14.3901
2018-09-29T06:41:01.923Z,-15.0559
2018-09-29T06:42:06.565Z,-14.8921
2018-09-29T06:43:12.300Z,-14.1417
2018-09-29T06:44:17.724Z,-14.8921
2018-09-29T06:45:22.905Z,-14.1417
2018-09-29T06:46:28.109Z,-14.6384
2018-09-29T06:47:33.645Z,-14.1417
2018-09-29T06:48:39.486Z,-14.8921
2018-09-29T06:49:44.633Z,-15.1405
2018-09-29T06:50:49.872Z,-14.6384
2018-09-29T06:51:55.069Z,-14.8921
2018-09-29T06:53:00.229Z,-15.6372
2018-09-29T06:54:05.382Z,-14.3901
2018-09-29T06:55:10.995Z,-14.1417
2018-09-29T06:56:16.147Z,-14.8921
2018-09-29T06:57:21.573Z,-15.3889
2018-09-29T06:58:27.292Z,-15.1405
2018-09-29T06:59:32.727Z,-15.6372
2018-09-29T07:00:38.477Z,-14.3901
2018-09-29T07:01:43.856Z,-15.1405
2018-09-29T07:02:49.032Z,-14.6384
2018-09-29T07:03:54.334Z,-14.6384
2018-09-29T07:04:59.581Z,-13.7242
2018-09-29T07:06:05.094Z,-14.1417
2018-09-29T07:07:10.548Z,-14.6384
2018-09-29T07:08:16.040Z,-14.3901
2018-09-29T07:09:21.517Z,-15.6372
2018-09-29T07:10:26.952Z,-15.3889
2018-09-29T07:11:32.414Z,-14.8921
2018-09-29T07:12:37.815Z,-15.8909
2018-09-29T07:13:43.004Z,-15.1405
2018-09-29T07:14:48.031Z,-15.1405
2018-09-29T07:15:53.248Z,-14.8921
2018-09-29T07:16:58.392Z,-15.3889
2018-09-29T07:18:03.734Z,-14.6384
2018-09-29T07:19:09.564Z,-14.6384
2018-09-29T07:20:15.024Z,-13.312
2018-09-29T07:21:20.173Z,-14.8921
2018-09-29T07:22:26.189Z,-14.1417
2018-09-29T07:23:31.067Z,-14.3901
2018-09-29T07:24:36.567Z,-14.1417
2018-09-29T07:25:42.045Z,-13.8088
2018-09-29T07:26:47.200Z,-14.3901
2018-09-29T07:27:52.892Z,-14.1417
2018-09-29T07:28:58.190Z,-14.3901
2018-09-29T07:30:02.755Z,-13.8088
2018-09-29T07:31:07.811Z,-13.8088
2018-09-29T07:32:13.248Z,-14.2262
2018-09-29T07:33:18.111Z,-14.2262
2018-09-29T07:34:23.754Z,-14.3901
2018-09-29T07:35:29.016Z,-14.8921
2018-09-29T07:36:35.003Z,-14.8921
2018-09-29T07:37:39.581Z,-15.1405
2018-09-29T07:38:44.740Z,-14.6384
2018-09-29T07:39:50.310Z,-14.6384
2018-09-29T07:40:55.813Z,-14.6384
2018-09-29T07:42:00.748Z,-15.1405
2018-09-29T07:43:06.643Z,-14.6384
2018-09-29T07:44:12.111Z,-15.6372
2018-09-29T07:45:17.385Z,-14.8921
2018-09-29T07:46:22.672Z,-14.9714
2018-09-29T07:47:28.161Z,-15.4734
2018-09-29T07:48:33.308Z,-15.4734
2018-09-29T07:49:38.762Z,-15.4734
2018-09-29T07:50:44.226Z,-15.7218
2018-09-29T07:51:49.307Z,-15.9755
2018-09-29T07:52:54.496Z,-15.7218
2018-09-29T07:53:59.450Z,-15.4734
2018-09-29T07:55:04.392Z,-15.2198
2018-09-29T07:56:09.654Z,-14.9714
2018-09-29T07:57:14.922Z,-15.7218
2018-09-29T07:58:20.147Z,-15.3043
2018-09-29T07:59:25.624Z,-15.3043
2018-09-29T08:00:31.631Z,-15.7218
2018-09-29T08:01:37.170Z,-15.7218
2018-09-29T08:02:42.799Z,-15.3043
2018-09-29T08:03:47.834Z,-15.7218
2018-09-29T08:04:53.115Z,-15.3043
2018-09-29T08:05:58.262Z,-15.4734
2018-09-29T08:07:03.751Z,-16.2238
2018-09-29T08:08:09.198Z,-15.9755
2018-09-29T08:09:14.631Z,-15.7218
2018-09-29T08:10:20.599Z,-15.4734
2018-09-29T08:11:25.565Z,-15.3043
2018-09-29T08:12:31.537Z,-15.3043
2018-09-29T08:13:36.353Z,-16.7206
2018-09-29T08:14:41.891Z,-15.558
2018-09-29T08:15:47.705Z,-16.5515
2018-09-29T08:16:52.878Z,-15.0559
2018-09-29T08:17:58.041Z,-16.0547
2018-09-29T08:19:03.327Z,-15.9755
2018-09-29T08:20:08.190Z,-15.558
2018-09-29T08:21:13.423Z,-15.558
2018-09-29T08:22:18.887Z,-15.3043
2018-09-29T08:23:23.743Z,-15.0559
2018-09-29T08:24:29.480Z,-14.5592
2018-09-29T08:25:34.314Z,-14.5592
2018-09-29T08:26:39.273Z,-15.3043
2018-09-29T08:27:45.118Z,-14.6384
2018-09-29T08:28:50.548Z,-15.0559
2018-09-29T08:29:56.043Z,-15.0559
2018-09-29T08:31:01.902Z,-15.558
2018-09-29T08:32:07.073Z,-14.5592
2018-09-29T08:33:12.206Z,-14.5592
2018-09-29T08:34:18.524Z,-16.0547
2018-09-29T08:35:23.991Z,-14.8076
2018-09-29T08:36:30.114Z,-14.5592
2018-09-29T08:37:35.279Z,-14.3108
2018-09-29T08:38:40.494Z,-16.3031
2018-09-29T08:39:45.908Z,-15.0559
2018-09-29T08:40:51.082Z,-14.5592
2018-09-29T08:41:56.534Z,-14.8076
2018-09-29T08:43:02.056Z,-15.0559
2018-09-29T08:44:06.651Z,-14.5592
2018-09-29T08:45:11.297Z,-14.8076
2018-09-29T08:46:16.702Z,-14.3108
2018-09-29T08:47:22.198Z,-15.0559
2018-09-29T08:48:42.579Z,-15.558
2018-09-29T08:49:47.746Z,-14.3108
2018-09-29T08:50:52.916Z,-14.0571
2018-09-29T08:51:58.622Z,-14.0571
2018-09-29T08:53:04.200Z,-14.3108
2018-09-29T08:54:09.373Z,-14.1417
2018-09-29T08:55:15.298Z,-14.1417
2018-09-29T08:56:20.739Z,-13.9779
2018-09-29T08:57:26.462Z,-13.9779
2018-09-29T08:58:31.476Z,-14.1417
2018-09-29T08:59:36.938Z,-13.4758
2018-09-29T09:00:42.480Z,-13.4758
2018-09-29T09:01:47.923Z,-13.7242
2018-09-29T09:02:53.359Z,-13.7242
2018-09-29T09:03:59.410Z,-13.2274
2018-09-29T09:05:04.884Z,-13.312
2018-09-29T09:06:09.753Z,-13.7242
2018-09-29T09:07:15.158Z,-13.9779
2018-09-29T09:08:20.643Z,-13.7242
2018-09-29T09:09:41.011Z,-13.7242
2018-09-29T09:10:46.289Z,-13.4758
2018-09-29T09:11:50.638Z,-13.7242
2018-09-29T09:12:56.355Z,-13.2274
2018-09-29T09:14:01.547Z,-13.2274
2018-09-29T09:15:06.163Z,-13.9779
2018-09-29T09:16:11.741Z,-13.4758
2018-09-29T09:17:17.179Z,-13.312
2018-09-29T09:18:22.622Z,-13.5604
2018-09-29T09:19:28.400Z,-14.1417
2018-09-29T09:20:33.882Z,-13.4758
2018-09-29T09:21:39.713Z,-13.7242
2018-09-29T09:22:44.671Z,-13.9779
2018-09-29T09:23:50.256Z,-14.3108
2018-09-29T09:24:56.014Z,-13.4758
2018-09-29T09:26:01.196Z,-13.7242
2018-09-29T09:27:06.887Z,-13.6449
2018-09-29T09:28:12.597Z,-13.4758
2018-09-29T09:29:18.038Z,-13.2274
2018-09-29T09:30:23.353Z,-13.3966
2018-09-29T09:31:28.807Z,-13.2274
2018-09-29T09:32:33.955Z,-13.2274
2018-09-29T09:33:39.382Z,-13.4758
2018-09-29T09:34:44.658Z,-13.4758
2018-09-29T09:35:49.525Z,-13.9779
2018-09-29T09:36:54.795Z,-13.7242
2018-09-29T09:37:59.952Z,-13.2274
2018-09-29T09:39:05.110Z,-13.4758
2018-09-29T09:40:11.148Z,-12.8152
2018-09-29T09:41:16.335Z,-12.3132
2018-09-29T09:42:21.763Z,-13.4758
2018-09-29T09:43:28.057Z,-12.3132
2018-09-29T09:44:33.467Z,-13.4758
2018-09-29T09:45:39.145Z,-12.4823
2018-09-29T09:46:44.619Z,-13.2274
2018-09-29T09:47:49.803Z,-12.2339
2018-09-29T09:48:55.651Z,-12.4823
2018-09-29T09:50:00.541Z,-12.9791
2018-09-29T09:51:05.718Z,-12.7307
2018-09-29T09:52:10.711Z,-12.0648
2018-09-29T09:53:15.589Z,-12.3132
2018-09-29T09:54:20.447Z,-11.8165
2018-09-29T09:55:25.771Z,-11.066
2018-09-29T09:56:31.292Z,-10.3156
2018-09-29T09:57:36.753Z,-11.5681
2018-09-29T09:58:41.903Z,-11.3144
2018-09-29T09:59:47.058Z,-11.3144
2018-09-29T10:00:52.486Z,-10.564
2018-09-29T10:01:57.996Z,-10.3156
2018-09-29T10:03:03.218Z,-10.0672
2018-09-29T10:04:08.315Z,-10.0672
2018-09-29T10:05:13.249Z,-10.564
2018-09-29T10:06:18.524Z,-10.564
2018-09-29T10:07:24.113Z,-10.0672
2018-09-29T10:08:29.268Z,-10.3156
2018-09-29T10:09:34.410Z,-9.8189
2018-09-29T10:10:39.268Z,-10.3156
2018-09-29T10:11:44.200Z,-10.0672
2018-09-29T10:12:49.439Z,-10.0672
2018-09-29T10:13:54.873Z,-8.9046
2018-09-29T10:15:00.371Z,-8.9046
2018-09-29T10:16:05.737Z,-9.5705
2018-09-29T10:17:10.919Z,-8.9046
2018-09-29T10:18:16.074Z,-8.9046
2018-09-29T10:19:21.507Z,-9.4014
2018-09-29T10:20:26.649Z,-9.153
2018-09-29T10:21:32.852Z,-8.6562
2018-09-29T10:22:38.032Z,-8.4079
2018-09-29T10:23:42.919Z,-8.1542
2018-09-29T10:24:48.427Z,-8.9046
2018-09-29T10:25:53.861Z,-8.6562
2018-09-29T10:26:59.004Z,-7.6574
2018-09-29T10:28:04.853Z,-7.4091
2018-09-29T10:29:10.321Z,-7.4091
2018-09-29T10:30:15.774Z,-7.6574
2018-09-29T10:31:21.574Z,-7.9058
2018-09-29T10:32:26.156Z,-7.6574
2018-09-29T10:33:31.546Z,-6.9916
2018-09-29T10:34:37.034Z,-6.9916
2018-09-29T10:35:42.506Z,-7.4091
2018-09-29T10:36:48.688Z,-7.1554
2018-09-29T10:37:53.068Z,-5.9928
2018-09-29T10:38:58.634Z,-6.2412
2018-09-29T10:40:03.016Z,-5.496
2018-09-29T10:41:08.560Z,-6.7432
2018-09-29T10:42:13.720Z,-6.2412
2018-09-29T10:43:19.739Z,-6.4948
2018-09-29T10:44:24.367Z,-5.9928
2018-09-29T10:45:30.399Z,-5.9928
2018-09-29T10:46:35.601Z,-5.496
2018-09-29T10:47:40.763Z,-5.9928
2018-09-29T10:48:46.307Z,-5.7444
2018-09-29T10:49:51.471Z,-5.496
2018-09-29T10:50:56.901Z,-5.496
2018-09-29T10:52:01.849Z,-5.7444
2018-09-29T10:53:07.053Z,-5.496
2018-09-29T10:54:11.926Z,-5.496
2018-09-29T10:55:17.064Z,-5.2476
2018-09-29T10:56:21.931Z,-4.3281
2018-09-29T10:57:27.694Z,-4.3281
2018-09-29T10:58:32.844Z,-3.8314
2018-09-29T10:59:38.276Z,-4.5765
2018-09-29T11:00:43.879Z,-4.0797
2018-09-29T11:01:49.104Z,-4.2488
2018-09-29T11:02:54.244Z,-3.8314
2018-09-29T11:03:59.920Z,-3.583
2018-09-29T11:05:05.345Z,-3.583
2018-09-29T11:06:11.233Z,-3.3346
2018-09-29T11:07:16.772Z,-3.0809
2018-09-29T11:08:21.978Z,-3.0809
2018-09-29T11:09:42.236Z,-2.5842
2018-09-29T11:10:47.387Z,-2.1667
2018-09-29T11:11:52.565Z,-2.1667
2018-09-29T11:12:57.523Z,-2.1667
2018-09-29T11:14:02.604Z,-2.1667
2018-09-29T11:15:07.811Z,-2.1667
2018-09-29T11:16:13.546Z,-1.6699
2018-09-29T11:17:18.704Z,-1.9183
2018-09-29T11:18:24.263Z,-1.4163
2018-09-29T11:19:44.763Z,-1.6699
2018-09-29T11:20:50.555Z,-1.4163
2018-09-29T11:21:56.567Z,-1.6699
2018-09-29T11:23:02.047Z,-1.9183
2018-09-29T11:24:07.483Z,-1.9183
2018-09-29T11:25:13.199Z,-1.1679
2018-09-29T11:26:18.393Z,-0.6659
2018-09-29T11:27:23.535Z,-0.6659
2018-09-29T11:28:29.465Z,-0.1691
2018-09-29T11:29:34.925Z,-0.6659
2018-09-29T11:30:40.939Z,-0.6659
2018-09-29T11:31:46.093Z,-0.9195
2018-09-29T11:32:51.535Z,-0.1691
2018-09-29T11:33:57.602Z,-0.6659
2018-09-29T11:35:02.752Z,-0.4175
2018-09-29T11:36:07.391Z,0.0846
2018-09-29T11:37:12.964Z,-0.1691
2018-09-29T11:38:18.444Z,0.584
2018-09-29T11:39:23.688Z,1.0014
2018-09-29T11:40:29.777Z,0.3329
2018-09-29T11:41:34.660Z,0.584
2018-09-29T11:42:40.500Z,0.835
2018-09-29T11:43:46.018Z,0.3329
2018-09-29T11:44:51.804Z,0.584
2018-09-29T11:45:57.552Z,1.2498
2018-09-29T11:47:02.460Z,1.9157
2018-09-29T11:48:07.888Z,1.9157
2018-09-29T11:49:13.450Z,1.2498
2018-09-29T11:50:18.938Z,1.6673
2018-09-29T11:51:24.373Z,2.1667
2018-09-29T11:52:30.161Z,2.6661
2018-09-29T11:53:35.110Z,1.9157
2018-09-29T11:54:41.033Z,1.5008
2018-09-29T11:55:46.464Z,2.4151
2018-09-29T11:56:51.933Z,2.4151
2018-09-29T11:57:57.490Z,2.6661
2018-09-29T11:59:02.925Z,2.1667
2018-09-29T12:00:08.352Z,2.9145
2018-09-29T12:01:13.996Z,3.1655
2018-09-29T12:02:19.581Z,3.332
2018-09-29T12:03:40.348Z,3.5803
2018-09-29T12:04:45.242Z,3.0809
2018-09-29T12:05:50.559Z,4.3308
2018-09-29T12:06:56.316Z,2.8326
2018-09-29T12:08:01.750Z,3.332
2018-09-29T12:09:07.160Z,3.8314
2018-09-29T12:10:12.982Z,4.8302
2018-09-29T12:11:18.769Z,4.3308
2018-09-29T12:12:23.952Z,4.3308
2018-09-29T12:13:29.426Z,4.4972
2018-09-29T12:14:34.857Z,4.2462
2018-09-29T12:15:40.166Z,4.7482
2018-09-29T12:16:45.111Z,5.496
2018-09-29T12:17:50.565Z,5.2476
2018-09-29T12:18:56.113Z,4.9966
2018-09-29T12:20:01.649Z,4.7482
2018-09-29T12:21:06.085Z,4.4972
2018-09-29T12:22:12.108Z,5.9954
2018-09-29T12:23:16.965Z,5.747
2018-09-29T12:24:22.216Z,5.747
2018-09-29T12:25:42.388Z,6.4129
2018-09-29T12:26:47.820Z,6.4129
2018-09-29T12:27:52.946Z,6.4129
2018-09-29T12:28:57.548Z,6.4129
2018-09-29T12:30:02.524Z,6.6639
2018-09-29T12:31:07.642Z,7.1633
2018-09-29T12:32:12.847Z,5.9954
2018-09-29T12:33:18.275Z,6.4129
2018-09-29T12:34:23.397Z,7.1633
2018-09-29T12:35:28.253Z,6.9123
2018-09-29T12:36:33.948Z,6.9123
2018-09-29T12:37:39.615Z,7.6627
2018-09-29T12:38:44.626Z,8.1621
2018-09-29T12:39:49.897Z,7.9111
2018-09-29T12:40:55.336Z,8.1621
2018-09-29T12:42:00.776Z,7.9111
2018-09-29T12:43:05.649Z,8.4131
2018-09-29T12:44:10.884Z,7.9111
2018-09-29T12:45:15.754Z,8.9125
2018-09-29T12:46:21.296Z,8.6615
2018-09-29T12:47:26.233Z,9.1609
2018-09-29T12:48:32.286Z,9.079
2018-09-29T12:49:37.726Z,9.33
2018-09-29T12:50:43.180Z,8.4131
2018-09-29T12:51:48.325Z,8.9125
2018-09-29T12:52:53.792Z,9.33
2018-09-29T12:53:58.656Z,9.5784
2018-09-29T12:55:04.025Z,9.4119
2018-09-29T12:56:09.231Z,9.8294
2018-09-29T12:57:14.130Z,9.8294
2018-09-29T12:58:19.875Z,9.5784
2018-09-29T12:59:24.487Z,10.0778
2018-09-29T13:00:29.406Z,9.33